sensor_id;sensor_type;location;lat;lon;timestamp;pressure;altitude;pressure_sealevel;temperature;humidity
80927;BME280;70385;44.538;18.532;2023-12-07T00:01:23;99400.31;;;0.60;100.00
80927;BME280;70385;44.538;18.532;2023-12-07T00:03:53;99408.88;;;0.66;100.00
80927;BME280;70385;44.538;18.532;2023-12-07T00:06:19;99412.31;;;0.68;100.00
80927;BME280;70385;44.538;18.532;2023-12-07T00:08:45;99411.44;;;0.67;100.00
80927;BME280;70385;44.538;18.532;2023-12-07T00:11:13;99420.84;;;0.76;100.00
80927;BME280;70385;44.538;18.532;2023-12-07T00:13:39;99420.84;;;0.74;100.00
80927;BME280;70385;44.538;18.532;2023-12-07T00:16:06;99425.13;;;0.84;100.00
80927;BME280;70385;44.538;18.532;2023-12-07T00:18:33;99420.84;;;0.82;100.00
80927;BME280;70385;44.538;18.532;2023-12-07T00:21:00;99425.97;;;0.85;100.00
80927;BME280;70385;44.538;18.532;2023-12-07T00:23:26;99422.56;;;0.81;100.00
80927;BME280;70385;44.538;18.532;2023-12-07T00:25:57;99420.78;;;0.88;100.00
80927;BME280;70385;44.538;18.532;2023-12-07T00:28:23;99422.47;;;0.92;100.00
80927;BME280;70385;44.538;18.532;2023-12-07T00:30:53;99428.50;;;0.89;100.00
80927;BME280;70385;44.538;18.532;2023-12-07T00:33:23;99423.38;;;0.86;100.00
80927;BME280;70385;44.538;18.532;2023-12-07T00:35:52;99439.63;;;1.02;100.00
80927;BME280;70385;44.538;18.532;2023-12-07T00:38:19;99427.63;;;0.95;100.00
80927;BME280;70385;44.538;18.532;2023-12-07T00:40:50;99437.94;;;1.00;100.00
80927;BME280;70385;44.538;18.532;2023-12-07T00:43:16;99449.00;;;1.11;100.00
80927;BME280;70385;44.538;18.532;2023-12-07T00:45:43;99442.16;;;1.10;100.00
80927;BME280;70385;44.538;18.532;2023-12-07T00:48:13;99444.72;;;1.16;100.00
80927;BME280;70385;44.538;18.532;2023-12-07T00:50:42;99448.94;;;1.25;100.00
80927;BME280;70385;44.538;18.532;2023-12-07T00:53:08;99444.66;;;1.22;100.00
80927;BME280;70385;44.538;18.532;2023-12-07T00:55:34;99443.84;;;1.17;100.00
80927;BME280;70385;44.538;18.532;2023-12-07T00:58:00;99440.41;;;1.18;100.00
80927;BME280;70385;44.538;18.532;2023-12-07T01:00:30;99442.97;;;1.19;100.00
80927;BME280;70385;44.538;18.532;2023-12-07T01:02:57;99447.19;;;1.28;100.00
80927;BME280;70385;44.538;18.532;2023-12-07T01:05:23;99440.28;;;1.35;100.00
80927;BME280;70385;44.538;18.532;2023-12-07T01:07:50;99441.94;;;1.46;100.00
80927;BME280;70385;44.538;18.532;2023-12-07T01:10:17;99445.41;;;1.42;100.00
80927;BME280;70385;44.538;18.532;2023-12-07T01:12:49;99441.97;;;1.43;100.00
80927;BME280;70385;44.538;18.532;2023-12-07T01:15:15;99452.19;;;1.52;100.00
80927;BME280;70385;44.538;18.532;2023-12-07T01:17:43;99434.19;;;1.46;100.00
80927;BME280;70385;44.538;18.532;2023-12-07T01:20:09;99443.69;;;1.41;100.00
80927;BME280;70385;44.538;18.532;2023-12-07T01:22:42;99438.59;;;1.35;100.00
80927;BME280;70385;44.538;18.532;2023-12-07T01:25:12;99442.88;;;1.33;100.00
80927;BME280;70385;44.538;18.532;2023-12-07T01:27:43;99450.59;;;1.36;100.00
80927;BME280;70385;44.538;18.532;2023-12-07T01:40:42;99456.66;;;1.29;100.00
80927;BME280;70385;44.538;18.532;2023-12-07T01:43:13;99454.13;;;1.20;100.00
80927;BME280;70385;44.538;18.532;2023-12-07T01:56:54;99453.25;;;1.23;100.00
80927;BME280;70385;44.538;18.532;2023-12-07T01:59:37;99469.53;;;1.28;100.00
80927;BME280;70385;44.538;18.532;2023-12-07T02:02:22;99460.97;;;1.24;100.00
80927;BME280;70385;44.538;18.532;2023-12-07T02:08:32;99460.13;;;1.24;100.00
80927;BME280;70385;44.538;18.532;2023-12-07T02:11:39;99465.25;;;1.28;100.00
80927;BME280;70385;44.538;18.532;2023-12-07T02:14:34;99475.56;;;1.28;100.00
80927;BME280;70385;44.538;18.532;2023-12-07T02:25:14;99470.44;;;1.22;100.00
80927;BME280;70385;44.538;18.532;2023-12-07T02:27:42;99473.88;;;1.21;100.00
80927;BME280;70385;44.538;18.532;2023-12-07T02:30:11;99469.56;;;1.23;100.00
80927;BME280;70385;44.538;18.532;2023-12-07T02:32:38;99473.84;;;1.26;100.00
80927;BME280;70385;44.538;18.532;2023-12-07T02:35:08;99478.97;;;1.30;100.00
80927;BME280;70385;44.538;18.532;2023-12-07T02:37:46;99483.25;;;1.31;100.00
80927;BME280;70385;44.538;18.532;2023-12-07T02:40:15;99483.28;;;1.28;100.00
80927;BME280;70385;44.538;18.532;2023-12-07T02:42:43;99493.59;;;1.28;100.00
80927;BME280;70385;44.538;18.532;2023-12-07T02:45:10;99487.59;;;1.26;100.00
80927;BME280;70385;44.538;18.532;2023-12-07T02:47:38;99494.47;;;1.27;100.00
80927;BME280;70385;44.538;18.532;2023-12-07T02:50:06;99494.44;;;1.30;100.00
80927;BME280;70385;44.538;18.532;2023-12-07T02:52:33;99497.88;;;1.29;100.00
80927;BME280;70385;44.538;18.532;2023-12-07T02:55:00;99491.88;;;1.27;100.00
80927;BME280;70385;44.538;18.532;2023-12-07T02:57:26;99501.34;;;1.28;100.00
80927;BME280;70385;44.538;18.532;2023-12-07T02:59:52;99497.88;;;1.29;100.00
80927;BME280;70385;44.538;18.532;2023-12-07T03:02:18;99505.63;;;1.35;100.00
80927;BME280;70385;44.538;18.532;2023-12-07T03:04:46;99512.47;;;1.39;100.00
80927;BME280;70385;44.538;18.532;2023-12-07T03:07:12;99499.59;;;1.32;100.00
80927;BME280;70385;44.538;18.532;2023-12-07T03:09:39;99498.72;;;1.31;100.00
80927;BME280;70385;44.538;18.532;2023-12-07T03:12:06;99513.34;;;1.35;100.00
80927;BME280;70385;44.538;18.532;2023-12-07T03:14:32;99511.63;;;1.31;100.00
80927;BME280;70385;44.538;18.532;2023-12-07T03:16:58;99512.47;;;1.33;100.00
80927;BME280;70385;44.538;18.532;2023-12-07T03:19:24;99509.06;;;1.27;100.00
80927;BME280;70385;44.538;18.532;2023-12-07T03:21:52;99512.50;;;1.29;100.00
80927;BME280;70385;44.538;18.532;2023-12-07T03:24:18;99522.81;;;1.30;100.00
80927;BME280;70385;44.538;18.532;2023-12-07T03:26:45;99523.66;;;1.31;100.00
80927;BME280;70385;44.538;18.532;2023-12-07T03:29:12;99536.53;;;1.31;100.00
80927;BME280;70385;44.538;18.532;2023-12-07T03:31:39;99533.09;;;1.35;100.00
80927;BME280;70385;44.538;18.532;2023-12-07T03:34:08;99532.28;;;1.24;100.00
80927;BME280;70385;44.538;18.532;2023-12-07T03:36:34;99537.44;;;1.24;100.00
80927;BME280;70385;44.538;18.532;2023-12-07T03:39:00;99544.34;;;1.21;100.00
80927;BME280;70385;44.538;18.532;2023-12-07T03:41:26;99540.06;;;1.19;100.00
80927;BME280;70385;44.538;18.532;2023-12-07T03:43:53;99542.59;;;1.22;100.00
80927;BME280;70385;44.538;18.532;2023-12-07T03:46:20;99536.59;;;1.23;100.00
80927;BME280;70385;44.538;18.532;2023-12-07T03:48:46;99532.34;;;1.16;100.00
80927;BME280;70385;44.538;18.532;2023-12-07T03:51:13;99538.34;;;1.18;100.00
80927;BME280;70385;44.538;18.532;2023-12-07T03:53:42;99538.34;;;1.13;100.00
80927;BME280;70385;44.538;18.532;2023-12-07T03:56:10;99545.22;;;1.16;100.00
80927;BME280;70385;44.538;18.532;2023-12-07T03:58:36;99540.91;;;1.12;100.00
80927;BME280;70385;44.538;18.532;2023-12-07T04:01:02;99544.34;;;1.18;100.00
80927;BME280;70385;44.538;18.532;2023-12-07T04:03:28;99545.22;;;1.13;100.00
80927;BME280;70385;44.538;18.532;2023-12-07T04:05:54;99551.22;;;1.12;100.00
80927;BME280;70385;44.538;18.532;2023-12-07T04:08:20;99559.81;;;1.12;100.00
80927;BME280;70385;44.538;18.532;2023-12-07T04:10:47;99551.22;;;1.12;100.00
80927;BME280;70385;44.538;18.532;2023-12-07T04:13:14;99560.69;;;1.10;100.00
80927;BME280;70385;44.538;18.532;2023-12-07T04:15:40;99555.53;;;1.07;100.00
80927;BME280;70385;44.538;18.532;2023-12-07T04:18:06;99562.44;;;1.03;100.00
80927;BME280;70385;44.538;18.532;2023-12-07T04:20:32;99566.72;;;1.06;100.00
80927;BME280;70385;44.538;18.532;2023-12-07T04:23:00;99564.13;;;1.09;100.00
80927;BME280;70385;44.538;18.532;2023-12-07T04:25:27;99583.88;;;1.13;100.00
80927;BME280;70385;44.538;18.532;2023-12-07T04:27:55;99574.44;;;1.09;100.00
80927;BME280;70385;44.538;18.532;2023-12-07T04:30:22;99572.72;;;1.06;100.00
80927;BME280;70385;44.538;18.532;2023-12-07T04:32:48;99574.44;;;1.07;100.00
80927;BME280;70385;44.538;18.532;2023-12-07T04:35:31;99580.47;;;1.06;100.00
80927;BME280;70385;44.538;18.532;2023-12-07T04:37:58;99577.03;;;1.07;100.00
80927;BME280;70385;44.538;18.532;2023-12-07T04:40:25;99591.59;;;1.13;100.00
80927;BME280;70385;44.538;18.532;2023-12-07T04:42:51;99592.47;;;1.09;100.00
80927;BME280;70385;44.538;18.532;2023-12-07T04:45:18;99592.47;;;1.10;100.00
80927;BME280;70385;44.538;18.532;2023-12-07T04:47:44;99601.91;;;1.10;100.00
80927;BME280;70385;44.538;18.532;2023-12-07T04:50:11;99603.66;;;1.06;100.00
80927;BME280;70385;44.538;18.532;2023-12-07T04:52:38;99613.94;;;1.08;100.00
80927;BME280;70385;44.538;18.532;2023-12-07T04:55:05;99609.66;;;1.10;100.00
80927;BME280;70385;44.538;18.532;2023-12-07T04:57:35;99616.50;;;1.11;100.00
80927;BME280;70385;44.538;18.532;2023-12-07T05:00:04;99613.94;;;1.08;100.00
80927;BME280;70385;44.538;18.532;2023-12-07T05:02:37;99622.53;;;1.13;100.00
80927;BME280;70385;44.538;18.532;2023-12-07T05:05:10;99620.81;;;1.12;100.00
80927;BME280;70385;44.538;18.532;2023-12-07T05:07:40;99627.66;;;1.14;100.00
80927;BME280;70385;44.538;18.532;2023-12-07T05:10:06;99629.41;;;1.17;100.00
80927;BME280;70385;44.538;18.532;2023-12-07T05:12:32;99627.66;;;1.14;100.00
80927;BME280;70385;44.538;18.532;2023-12-07T05:15:00;99624.22;;;1.14;100.00
80927;BME280;70385;44.538;18.532;2023-12-07T05:17:26;99632.84;;;1.19;100.00
80927;BME280;70385;44.538;18.532;2023-12-07T05:19:53;99631.09;;;1.15;100.00
80927;BME280;70385;44.538;18.532;2023-12-07T05:22:20;99641.44;;;1.18;100.00
80927;BME280;70385;44.538;18.532;2023-12-07T05:24:50;99644.88;;;1.18;100.00
80927;BME280;70385;44.538;18.532;2023-12-07T05:27:23;99644.84;;;1.25;100.00
80927;BME280;70385;44.538;18.532;2023-12-07T05:29:48;99650.03;;;1.17;100.00
80927;BME280;70385;44.538;18.532;2023-12-07T05:32:14;99638.84;;;1.15;100.00
80927;BME280;70385;44.538;18.532;2023-12-07T05:34:40;99644.84;;;1.15;100.00
80927;BME280;70385;44.538;18.532;2023-12-07T05:37:07;99634.56;;;1.11;100.00
80927;BME280;70385;44.538;18.532;2023-12-07T05:39:33;99640.56;;;1.11;100.00
80927;BME280;70385;44.538;18.532;2023-12-07T05:42:00;99644.00;;;1.13;100.00
80927;BME280;70385;44.538;18.532;2023-12-07T05:44:30;99644.84;;;1.14;100.00
80927;BME280;70385;44.538;18.532;2023-12-07T05:46:56;99629.41;;;1.17;100.00
80927;BME280;70385;44.538;18.532;2023-12-07T05:49:26;99636.25;;;1.15;100.00
80927;BME280;70385;44.538;18.532;2023-12-07T05:51:54;99651.72;;;1.19;100.00
80927;BME280;70385;44.538;18.532;2023-12-07T05:54:20;99643.16;;;1.19;100.00
80927;BME280;70385;44.538;18.532;2023-12-07T05:56:48;99647.44;;;1.17;100.00
80927;BME280;70385;44.538;18.532;2023-12-07T05:59:15;99649.16;;;1.19;100.00
80927;BME280;70385;44.538;18.532;2023-12-07T06:01:41;99647.41;;;1.25;100.00
80927;BME280;70385;44.538;18.532;2023-12-07T06:04:09;99637.97;;;1.22;100.00
80927;BME280;70385;44.538;18.532;2023-12-07T06:06:36;99632.84;;;1.19;100.00
80927;BME280;70385;44.538;18.532;2023-12-07T06:09:02;99638.81;;;1.26;100.00
80927;BME280;70385;44.538;18.532;2023-12-07T06:11:28;99643.13;;;1.22;100.00
80927;BME280;70385;44.538;18.532;2023-12-07T06:13:54;99646.56;;;1.21;100.00
80927;BME280;70385;44.538;18.532;2023-12-07T06:16:22;99635.41;;;1.19;100.00
80927;BME280;70385;44.538;18.532;2023-12-07T06:18:49;99650.84;;;1.24;100.00
80927;BME280;70385;44.538;18.532;2023-12-07T06:21:16;99650.00;;;1.20;100.00
80927;BME280;70385;44.538;18.532;2023-12-07T06:23:43;99643.16;;;1.19;100.00
80927;BME280;70385;44.538;18.532;2023-12-07T06:26:13;99646.56;;;1.21;100.00
80927;BME280;70385;44.538;18.532;2023-12-07T06:28:40;99650.03;;;1.17;100.00
80927;BME280;70385;44.538;18.532;2023-12-07T06:31:08;99655.16;;;1.21;100.00
80927;BME280;70385;44.538;18.532;2023-12-07T06:33:34;99651.75;;;1.18;100.00
80927;BME280;70385;44.538;18.532;2023-12-07T06:36:03;99652.59;;;1.21;100.00
80927;BME280;70385;44.538;18.532;2023-12-07T06:38:30;99659.44;;;1.24;100.00
80927;BME280;70385;44.538;18.532;2023-12-07T06:40:57;99658.56;;;1.28;100.00
80927;BME280;70385;44.538;18.532;2023-12-07T06:43:24;99655.16;;;1.26;100.00
80927;BME280;70385;44.538;18.532;2023-12-07T06:45:51;99651.69;;;1.27;100.00
80927;BME280;70385;44.538;18.532;2023-12-07T06:48:17;99658.56;;;1.28;100.00
80927;BME280;70385;44.538;18.532;2023-12-07T06:50:43;99667.13;;;1.33;100.00
80927;BME280;70385;44.538;18.532;2023-12-07T06:53:09;99658.59;;;1.25;100.00
80927;BME280;70385;44.538;18.532;2023-12-07T06:55:35;99664.59;;;1.29;100.00
80927;BME280;70385;44.538;18.532;2023-12-07T06:58:02;99672.28;;;1.33;100.00
80927;BME280;70385;44.538;18.532;2023-12-07T07:00:29;99680.00;;;1.45;100.00
80927;BME280;70385;44.538;18.532;2023-12-07T07:03:05;99662.81;;;1.47;100.00
80927;BME280;70385;44.538;18.532;2023-12-07T07:05:32;99667.09;;;1.50;100.00
80927;BME280;70385;44.538;18.532;2023-12-07T07:07:57;99672.22;;;1.61;100.00
80927;BME280;70385;44.538;18.532;2023-12-07T07:10:30;99673.94;;;1.65;100.00
80927;BME280;70385;44.538;18.532;2023-12-07T07:13:02;99678.19;;;1.69;100.00
80927;BME280;70385;44.538;18.532;2023-12-07T07:15:33;99672.16;;;1.73;100.00
80927;BME280;70385;44.538;18.532;2023-12-07T07:18:01;99680.75;;;1.73;100.00
80927;BME280;70385;44.538;18.532;2023-12-07T07:20:34;99686.81;;;1.74;100.00
80927;BME280;70385;44.538;18.532;2023-12-07T07:23:00;99682.47;;;1.73;100.00
80927;BME280;70385;44.538;18.532;2023-12-07T07:25:26;99685.94;;;1.75;100.00
80927;BME280;70385;44.538;18.532;2023-12-07T07:27:52;99687.66;;;1.76;100.00
80927;BME280;70385;44.538;18.532;2023-12-07T07:30:21;99690.19;;;1.87;100.00
80927;BME280;70385;44.538;18.532;2023-12-07T07:32:50;99684.16;;;1.86;100.00
80927;BME280;70385;44.538;18.532;2023-12-07T07:35:18;99692.78;;;1.80;100.00
80927;BME280;70385;44.538;18.532;2023-12-07T07:37:44;99700.50;;;1.87;100.00
80927;BME280;70385;44.538;18.532;2023-12-07T07:40:10;99698.81;;;1.73;100.00
80927;BME280;70385;44.538;18.532;2023-12-07T07:42:38;99708.28;;;1.73;100.00
80927;BME280;70385;44.538;18.532;2023-12-07T07:45:21;99710.94;;;1.56;100.00
80927;BME280;70385;44.538;18.532;2023-12-07T07:47:47;99711.78;;;1.57;100.00
80927;BME280;70385;44.538;18.532;2023-12-07T07:50:13;99706.63;;;1.61;100.00
80927;BME280;70385;44.538;18.532;2023-12-07T07:52:40;99710.91;;;1.64;100.00
80927;BME280;70385;44.538;18.532;2023-12-07T07:55:06;99718.69;;;1.55;100.00
80927;BME280;70385;44.538;18.532;2023-12-07T07:57:32;99702.31;;;1.54;100.00
80927;BME280;70385;44.538;18.532;2023-12-07T07:59:59;99731.53;;;1.67;100.00
80927;BME280;70385;44.538;18.532;2023-12-07T08:02:25;99724.72;;;1.44;100.00
80927;BME280;70385;44.538;18.532;2023-12-07T08:04:54;99712.66;;;1.51;100.00
80927;BME280;70385;44.538;18.532;2023-12-07T08:07:20;99727.28;;;1.41;100.00
80927;BME280;70385;44.538;18.532;2023-12-07T08:09:46;99735.03;;;1.44;100.00
80927;BME280;70385;44.538;18.532;2023-12-07T08:12:12;99729.00;;;1.45;100.00
80927;BME280;70385;44.538;18.532;2023-12-07T08:14:38;99731.59;;;1.42;100.00
80927;BME280;70385;44.538;18.532;2023-12-07T08:17:04;99745.34;;;1.44;100.00
80927;BME280;70385;44.538;18.532;2023-12-07T08:19:31;99741.91;;;1.41;100.00
80927;BME280;70385;44.538;18.532;2023-12-07T08:21:57;99742.75;;;1.47;100.00
80927;BME280;70385;44.538;18.532;2023-12-07T08:24:24;99750.50;;;1.46;100.00
80927;BME280;70385;44.538;18.532;2023-12-07T08:26:50;99752.19;;;1.53;100.00
80927;BME280;70385;44.538;18.532;2023-12-07T08:29:16;99756.47;;;1.63;100.00
80927;BME280;70385;44.538;18.532;2023-12-07T08:31:42;99746.16;;;1.62;100.00
80927;BME280;70385;44.538;18.532;2023-12-07T08:34:10;99750.47;;;1.58;100.00
80927;BME280;70385;44.538;18.532;2023-12-07T08:36:36;99752.16;;;1.70;100.00
80927;BME280;70385;44.538;18.532;2023-12-07T08:39:02;99759.88;;;1.77;100.00
80927;BME280;70385;44.538;18.532;2023-12-07T08:41:28;99759.00;;;1.81;100.00
80927;BME280;70385;44.538;18.532;2023-12-07T08:43:54;99765.00;;;1.94;100.00
80927;BME280;70385;44.538;18.532;2023-12-07T08:46:23;99756.34;;;2.04;100.00
80927;BME280;70385;44.538;18.532;2023-12-07T08:48:49;99743.41;;;2.13;100.00
80927;BME280;70385;44.538;18.532;2023-12-07T08:51:18;99743.31;;;2.32;100.00
80927;BME280;70385;44.538;18.532;2023-12-07T08:53:44;99742.34;;;2.51;100.00
80927;BME280;70385;44.538;18.532;2023-12-07T08:56:10;99750.84;;;2.70;100.00
80927;BME280;70385;44.538;18.532;2023-12-07T08:58:41;99752.41;;;2.86;100.00
80927;BME280;70385;44.538;18.532;2023-12-07T09:01:12;99747.25;;;2.91;100.00
80927;BME280;70385;44.538;18.532;2023-12-07T09:03:37;99744.69;;;2.85;100.00
80927;BME280;70385;44.538;18.532;2023-12-07T09:06:10;99748.81;;;3.09;100.00
80927;BME280;70385;44.538;18.532;2023-12-07T09:08:37;99747.78;;;3.26;100.00
80927;BME280;70385;44.538;18.532;2023-12-07T09:11:03;99751.22;;;3.30;100.00
80927;BME280;70385;44.538;18.532;2023-12-07T09:13:30;99754.69;;;3.29;100.00
80927;BME280;70385;44.538;18.532;2023-12-07T09:15:56;99755.56;;;3.23;100.00
80927;BME280;70385;44.538;18.532;2023-12-07T09:18:25;99758.94;;;3.34;100.00
80927;BME280;70385;44.538;18.532;2023-12-07T09:20:52;99757.31;;;3.21;100.00
80927;BME280;70385;44.538;18.532;2023-12-07T09:23:37;99749.69;;;3.06;100.00
80927;BME280;70385;44.538;18.532;2023-12-07T09:26:04;99753.03;;;3.17;100.00
80927;BME280;70385;44.538;18.532;2023-12-07T09:28:39;99756.34;;;3.33;100.00
80927;BME280;70385;44.538;18.532;2023-12-07T09:31:19;99743.50;;;3.24;100.00
80927;BME280;70385;44.538;18.532;2023-12-07T09:33:45;99739.84;;;3.45;100.00
80927;BME280;70385;44.538;18.532;2023-12-07T09:36:16;99743.09;;;3.65;100.00
80927;BME280;70385;44.538;18.532;2023-12-07T09:38:45;99731.72;;;3.78;100.00
80927;BME280;70385;44.538;18.532;2023-12-07T09:41:11;99727.50;;;3.71;100.00
80927;BME280;70385;44.538;18.532;2023-12-07T09:43:39;99727.22;;;3.95;100.00
80927;BME280;70385;44.538;18.532;2023-12-07T09:46:06;99727.09;;;4.05;100.00
80927;BME280;70385;44.538;18.532;2023-12-07T09:48:37;99728.75;;;4.12;100.00
80927;BME280;70385;44.538;18.532;2023-12-07T09:51:07;99735.25;;;4.40;100.00
80927;BME280;70385;44.538;18.532;2023-12-07T09:53:38;99729.41;;;4.28;100.00
80927;BME280;70385;44.538;18.532;2023-12-07T09:56:05;99723.00;;;4.53;100.00
80927;BME280;70385;44.538;18.532;2023-12-07T09:58:40;99730.59;;;4.01;100.00
80927;BME280;70385;44.538;18.532;2023-12-07T10:01:08;99711.97;;;3.71;100.00
80927;BME280;70385;44.538;18.532;2023-12-07T10:03:41;99720.66;;;3.69;100.00
80927;BME280;70385;44.538;18.532;2023-12-07T10:06:08;99720.72;;;3.59;100.00
80927;BME280;70385;44.538;18.532;2023-12-07T10:08:34;99722.56;;;3.47;100.00
80927;BME280;70385;44.538;18.532;2023-12-07T10:11:10;99718.78;;;3.78;100.00
80927;BME280;70385;44.538;18.532;2023-12-07T10:13:39;99720.47;;;3.82;100.00
80927;BME280;70385;44.538;18.532;2023-12-07T10:18:35;99717.84;;;3.87;100.00
80927;BME280;70385;44.538;18.532;2023-12-07T10:21:02;99708.66;;;3.60;100.00
80927;BME280;70385;44.538;18.532;2023-12-07T10:23:30;99722.41;;;3.62;100.00
80927;BME280;70385;44.538;18.532;2023-12-07T10:25:58;99713.47;;;3.90;100.00
80927;BME280;70385;44.538;18.532;2023-12-07T10:28:28;99710.81;;;3.95;100.00
80927;BME280;70385;44.538;18.532;2023-12-07T10:30:54;99703.59;;;4.20;100.00
80927;BME280;70385;44.538;18.532;2023-12-07T10:33:20;99705.38;;;4.16;100.00
80927;BME280;70385;44.538;18.532;2023-12-07T10:35:47;99710.28;;;4.36;100.00
80927;BME280;70385;44.538;18.532;2023-12-07T10:38:15;99706.84;;;4.36;100.00
80927;BME280;70385;44.538;18.532;2023-12-07T10:40:43;99704.41;;;4.25;100.00
80927;BME280;70385;44.538;18.532;2023-12-07T10:43:12;99708.06;;;4.10;100.00
80927;BME280;70385;44.538;18.532;2023-12-07T10:45:40;99701.31;;;3.95;100.00
80927;BME280;70385;44.538;18.532;2023-12-07T10:48:09;99703.16;;;3.87;100.00
80927;BME280;70385;44.538;18.532;2023-12-07T10:50:41;99706.00;;;3.68;100.00
80927;BME280;70385;44.538;18.532;2023-12-07T10:53:20;99699.97;;;3.64;100.00
80927;BME280;70385;44.538;18.532;2023-12-07T10:55:55;99706.66;;;3.83;100.00
80927;BME280;70385;44.538;18.532;2023-12-07T10:58:23;99701.50;;;3.80;100.00
80927;BME280;70385;44.538;18.532;2023-12-07T11:00:53;99704.06;;;3.83;100.00
80927;BME280;70385;44.538;18.532;2023-12-07T11:03:20;99715.16;;;3.94;100.00
80927;BME280;70385;44.538;18.532;2023-12-07T11:05:48;99705.84;;;3.80;100.00
80927;BME280;70385;44.538;18.532;2023-12-07T11:08:28;99716.94;;;3.89;100.00
80927;BME280;70385;44.538;18.532;2023-12-07T11:13:38;99704.03;;;3.86;100.00
80927;BME280;70385;44.538;18.532;2023-12-07T11:16:05;99705.78;;;3.84;100.00
80927;BME280;70385;44.538;18.532;2023-12-07T11:18:34;99712.84;;;3.70;100.00
80927;BME280;70385;44.538;18.532;2023-12-07T11:21:00;99724.19;;;3.58;100.00
80927;BME280;70385;44.538;18.532;2023-12-07T11:23:29;99715.59;;;3.55;100.00
80927;BME280;70385;44.538;18.532;2023-12-07T11:25:56;99715.69;;;3.49;100.00
80927;BME280;70385;44.538;18.532;2023-12-07T11:28:39;99717.28;;;3.59;100.00
80927;BME280;70385;44.538;18.532;2023-12-07T11:31:11;99705.00;;;3.76;100.00
80927;BME280;70385;44.538;18.532;2023-12-07T11:33:40;99706.81;;;3.71;100.00
80927;BME280;70385;44.538;18.532;2023-12-07T11:36:09;99716.13;;;3.83;100.00
80927;BME280;70385;44.538;18.532;2023-12-07T11:38:36;99707.44;;;3.91;100.00
80927;BME280;70385;44.538;18.532;2023-12-07T11:41:02;99717.16;;;3.71;100.00
80927;BME280;70385;44.538;18.532;2023-12-07T11:46:04;99709.19;;;3.88;100.00
80927;BME280;70385;44.538;18.532;2023-12-07T11:48:30;99708.31;;;3.90;100.00
80927;BME280;70385;44.538;18.532;2023-12-07T11:51:06;99713.31;;;4.06;100.00
80927;BME280;70385;44.538;18.532;2023-12-07T11:53:39;99716.81;;;3.99;100.00
80927;BME280;70385;44.538;18.532;2023-12-07T11:56:07;99714.44;;;3.82;100.00
80927;BME280;70385;44.538;18.532;2023-12-07T11:58:34;99717.78;;;3.91;100.00
80927;BME280;70385;44.538;18.532;2023-12-07T12:01:02;99719.41;;;3.99;100.00
80927;BME280;70385;44.538;18.532;2023-12-07T12:03:34;99725.63;;;3.87;100.00
80927;BME280;70385;44.538;18.532;2023-12-07T12:06:09;99730.91;;;3.75;100.00
80927;BME280;70385;44.538;18.532;2023-12-07T12:08:40;99732.91;;;3.50;100.00
80927;BME280;70385;44.538;18.532;2023-12-07T12:11:07;99734.03;;;3.21;100.00
80927;BME280;70385;44.538;18.532;2023-12-07T12:13:36;99727.97;;;3.25;100.00
80927;BME280;70385;44.538;18.532;2023-12-07T12:16:03;99722.84;;;3.19;100.00
80927;BME280;70385;44.538;18.532;2023-12-07T12:18:29;99711.75;;;3.11;100.00
80927;BME280;70385;44.538;18.532;2023-12-07T12:20:56;99721.28;;;3.03;100.00
80927;BME280;70385;44.538;18.532;2023-12-07T12:23:29;99715.25;;;3.01;100.00
80927;BME280;70385;44.538;18.532;2023-12-07T12:25:56;99718.50;;;3.24;100.00
80927;BME280;70385;44.538;18.532;2023-12-07T12:28:22;99722.84;;;3.19;100.00
80927;BME280;70385;44.538;18.532;2023-12-07T12:30:50;99725.47;;;3.18;100.00
80927;BME280;70385;44.538;18.532;2023-12-07T12:33:19;99721.03;;;3.27;100.00
80927;BME280;70385;44.538;18.532;2023-12-07T12:36:05;99732.16;;;3.39;100.00
80927;BME280;70385;44.538;18.532;2023-12-07T12:38:37;99715.06;;;3.24;100.00
80927;BME280;70385;44.538;18.532;2023-12-07T12:41:11;99725.31;;;3.33;100.00
80927;BME280;70385;44.538;18.532;2023-12-07T12:43:38;99730.53;;;3.25;100.00
80927;BME280;70385;44.538;18.532;2023-12-07T12:46:08;99728.03;;;3.19;100.00
80927;BME280;70385;44.538;18.532;2023-12-07T12:48:34;99722.78;;;3.25;100.00
80927;BME280;70385;44.538;18.532;2023-12-07T12:51:13;99718.44;;;3.32;100.00
80927;BME280;70385;44.538;18.532;2023-12-07T12:53:47;99720.13;;;3.36;100.00
80927;BME280;70385;44.538;18.532;2023-12-07T12:56:15;99714.03;;;3.40;100.00
80927;BME280;70385;44.538;18.532;2023-12-07T12:58:51;99721.75;;;3.45;100.00
80927;BME280;70385;44.538;18.532;2023-12-07T13:01:17;99715.69;;;3.49;100.00
80927;BME280;70385;44.538;18.532;2023-12-07T13:03:44;99724.16;;;3.60;100.00
80927;BME280;70385;44.538;18.532;2023-12-07T13:06:15;99719.13;;;3.49;100.00
80927;BME280;70385;44.538;18.532;2023-12-07T13:08:46;99729.38;;;3.57;100.00
80927;BME280;70385;44.538;18.532;2023-12-07T13:11:18;99733.69;;;3.56;100.00
80927;BME280;70385;44.538;18.532;2023-12-07T13:13:45;99723.28;;;3.62;100.00
80927;BME280;70385;44.538;18.532;2023-12-07T13:16:16;99730.19;;;3.60;100.00
80927;BME280;70385;44.538;18.532;2023-12-07T13:18:42;99720.72;;;3.61;100.00
80927;BME280;70385;44.538;18.532;2023-12-07T13:21:26;99716.28;;;3.72;100.00
80927;BME280;70385;44.538;18.532;2023-12-07T13:23:56;99720.53;;;3.76;100.00
80927;BME280;70385;44.538;18.532;2023-12-07T13:26:24;99723.88;;;3.84;100.00
80927;BME280;70385;44.538;18.532;2023-12-07T13:28:51;99716.94;;;3.89;100.00
80927;BME280;70385;44.538;18.532;2023-12-07T13:31:18;99713.31;;;4.03;100.00
80927;BME280;70385;44.538;18.532;2023-12-07T13:33:44;99712.34;;;4.11;100.00
80927;BME280;70385;44.538;18.532;2023-12-07T13:36:10;99713.16;;;4.15;100.00
80927;BME280;70385;44.538;18.532;2023-12-07T13:38:36;99716.78;;;4.02;100.00